sensor_id;sensor_type;location;lat;lon;timestamp;P1;durP1;ratioP1;P2;durP2;ratioP2
54037;SDS011;39954;48.844;9.726;2023-10-09T00:00:58;37.10;;;6.93;;
54037;SDS011;39954;48.844;9.726;2023-10-09T00:02:07;39.78;;;7.10;;
54037;SDS011;39954;48.844;9.726;2023-10-09T00:03:10;36.13;;;6.78;;
54037;SDS011;39954;48.844;9.726;2023-10-09T00:04:15;29.73;;;6.70;;
54037;SDS011;39954;48.844;9.726;2023-10-09T00:05:21;33.53;;;8.07;;
54037;SDS011;39954;48.844;9.726;2023-10-09T00:06:40;28.15;;;6.72;;
54037;SDS011;39954;48.844;9.726;2023-10-09T00:07:43;33.53;;;7.80;;
54037;SDS011;39954;48.844;9.726;2023-10-09T00:08:48;32.00;;;7.07;;
54037;SDS011;39954;48.844;9.726;2023-10-09T00:09:56;30.58;;;6.60;;
54037;SDS011;39954;48.844;9.726;2023-10-09T00:11:02;35.28;;;6.75;;
54037;SDS011;39954;48.844;9.726;2023-10-09T00:12:21;26.02;;;6.35;;
54037;SDS011;39954;48.844;9.726;2023-10-09T00:13:27;30.85;;;7.07;;
54037;SDS011;39954;48.844;9.726;2023-10-09T00:14:32;29.13;;;6.47;;
54037;SDS011;39954;48.844;9.726;2023-10-09T00:15:40;33.40;;;6.32;;
54037;SDS011;39954;48.844;9.726;2023-10-09T00:16:43;24.15;;;6.43;;
54037;SDS011;39954;48.844;9.726;2023-10-09T00:17:49;36.13;;;7.03;;
54037;SDS011;39954;48.844;9.726;2023-10-09T00:18:53;33.20;;;6.40;;
54037;SDS011;39954;48.844;9.726;2023-10-09T00:19:59;27.08;;;6.40;;
54037;SDS011;39954;48.844;9.726;2023-10-09T00:21:16;30.98;;;6.80;;
54037;SDS011;39954;48.844;9.726;2023-10-09T00:22:22;32.28;;;6.50;;
54037;SDS011;39954;48.844;9.726;2023-10-09T00:23:33;22.90;;;5.90;;
54037;SDS011;39954;48.844;9.726;2023-10-09T00:24:35;34.65;;;7.18;;
54037;SDS011;39954;48.844;9.726;2023-10-09T00:25:48;27.77;;;6.45;;
54037;SDS011;39954;48.844;9.726;2023-10-09T00:27:10;29.20;;;6.03;;
54037;SDS011;39954;48.844;9.726;2023-10-09T00:28:13;37.95;;;7.50;;
54037;SDS011;39954;48.844;9.726;2023-10-09T00:29:20;30.23;;;6.82;;
54037;SDS011;39954;48.844;9.726;2023-10-09T00:30:23;44.78;;;8.15;;
54037;SDS011;39954;48.844;9.726;2023-10-09T00:31:31;35.80;;;6.75;;
54037;SDS011;39954;48.844;9.726;2023-10-09T00:32:35;39.65;;;7.07;;
54037;SDS011;39954;48.844;9.726;2023-10-09T00:33:53;34.08;;;6.70;;
54037;SDS011;39954;48.844;9.726;2023-10-09T00:34:56;39.58;;;8.38;;
54037;SDS011;39954;48.844;9.726;2023-10-09T00:36:25;43.95;;;7.53;;
54037;SDS011;39954;48.844;9.726;2023-10-09T00:37:30;36.40;;;6.43;;
54037;SDS011;39954;48.844;9.726;2023-10-09T00:38:36;30.33;;;6.03;;
54037;SDS011;39954;48.844;9.726;2023-10-09T00:39:41;38.55;;;7.30;;
54037;SDS011;39954;48.844;9.726;2023-10-09T00:40:49;41.17;;;6.65;;
54037;SDS011;39954;48.844;9.726;2023-10-09T00:41:58;38.80;;;8.35;;
54037;SDS011;39954;48.844;9.726;2023-10-09T00:43:08;31.20;;;6.53;;
54037;SDS011;39954;48.844;9.726;2023-10-09T00:44:30;36.42;;;6.78;;
54037;SDS011;39954;48.844;9.726;2023-10-09T00:45:39;26.50;;;5.97;;
54037;SDS011;39954;48.844;9.726;2023-10-09T00:46:42;37.35;;;7.15;;
54037;SDS011;39954;48.844;9.726;2023-10-09T00:47:49;23.92;;;5.68;;
54037;SDS011;39954;48.844;9.726;2023-10-09T00:48:52;40.63;;;6.53;;
54037;SDS011;39954;48.844;9.726;2023-10-09T00:50:00;35.40;;;6.40;;
54037;SDS011;39954;48.844;9.726;2023-10-09T00:51:12;39.90;;;6.85;;
54037;SDS011;39954;48.844;9.726;2023-10-09T00:52:23;37.47;;;6.85;;
54037;SDS011;39954;48.844;9.726;2023-10-09T00:53:33;35.78;;;6.50;;
54037;SDS011;39954;48.844;9.726;2023-10-09T00:54:38;39.97;;;7.03;;
54037;SDS011;39954;48.844;9.726;2023-10-09T00:55:43;38.08;;;7.28;;
54037;SDS011;39954;48.844;9.726;2023-10-09T00:56:57;39.67;;;7.57;;
54037;SDS011;39954;48.844;9.726;2023-10-09T00:58:14;32.15;;;6.78;;
54037;SDS011;39954;48.844;9.726;2023-10-09T00:59:25;30.38;;;6.50;;
54037;SDS011;39954;48.844;9.726;2023-10-09T01:00:28;44.05;;;6.68;;
54037;SDS011;39954;48.844;9.726;2023-10-09T01:01:47;29.05;;;5.90;;
54037;SDS011;39954;48.844;9.726;2023-10-09T01:02:59;34.00;;;5.63;;
54037;SDS011;39954;48.844;9.726;2023-10-09T01:04:21;38.22;;;7.50;;
54037;SDS011;39954;48.844;9.726;2023-10-09T01:05:27;39.67;;;7.07;;
54037;SDS011;39954;48.844;9.726;2023-10-09T01:06:33;31.25;;;6.28;;
54037;SDS011;39954;48.844;9.726;2023-10-09T01:07:40;33.00;;;6.30;;
54037;SDS011;39954;48.844;9.726;2023-10-09T01:08:47;33.10;;;6.40;;
54037;SDS011;39954;48.844;9.726;2023-10-09T01:10:03;41.25;;;6.97;;
54037;SDS011;39954;48.844;9.726;2023-10-09T01:11:30;30.15;;;6.53;;
54037;SDS011;39954;48.844;9.726;2023-10-09T01:12:32;34.65;;;7.40;;
54037;SDS011;39954;48.844;9.726;2023-10-09T01:13:44;27.55;;;6.50;;
54037;SDS011;39954;48.844;9.726;2023-10-09T01:14:54;35.92;;;7.57;;
54037;SDS011;39954;48.844;9.726;2023-10-09T01:16:03;30.85;;;7.75;;
54037;SDS011;39954;48.844;9.726;2023-10-09T01:17:06;31.05;;;6.57;;
54037;SDS011;39954;48.844;9.726;2023-10-09T01:18:13;23.77;;;5.97;;
54037;SDS011;39954;48.844;9.726;2023-10-09T01:19:16;30.02;;;7.13;;
54037;SDS011;39954;48.844;9.726;2023-10-09T01:20:26;36.55;;;6.82;;
54037;SDS011;39954;48.844;9.726;2023-10-09T01:21:32;30.48;;;6.13;;
54037;SDS011;39954;48.844;9.726;2023-10-09T01:22:40;31.05;;;7.18;;
54037;SDS011;39954;48.844;9.726;2023-10-09T01:23:47;29.52;;;6.65;;
54037;SDS011;39954;48.844;9.726;2023-10-09T01:25:06;38.60;;;7.68;;
54037;SDS011;39954;48.844;9.726;2023-10-09T01:26:09;30.75;;;7.18;;
54037;SDS011;39954;48.844;9.726;2023-10-09T01:27:14;31.38;;;6.78;;
54037;SDS011;39954;48.844;9.726;2023-10-09T01:28:17;35.10;;;7.55;;
54037;SDS011;39954;48.844;9.726;2023-10-09T01:29:23;37.65;;;7.22;;
54037;SDS011;39954;48.844;9.726;2023-10-09T01:30:29;30.98;;;7.13;;
54037;SDS011;39954;48.844;9.726;2023-10-09T01:31:33;35.67;;;6.47;;
54037;SDS011;39954;48.844;9.726;2023-10-09T01:32:39;35.13;;;7.43;;
54037;SDS011;39954;48.844;9.726;2023-10-09T01:33:42;38.80;;;7.47;;
54037;SDS011;39954;48.844;9.726;2023-10-09T01:34:48;32.55;;;6.75;;
54037;SDS011;39954;48.844;9.726;2023-10-09T01:35:55;39.47;;;7.45;;
54037;SDS011;39954;48.844;9.726;2023-10-09T01:37:00;31.92;;;7.07;;
54037;SDS011;39954;48.844;9.726;2023-10-09T01:38:06;31.77;;;6.72;;
54037;SDS011;39954;48.844;9.726;2023-10-09T01:39:19;31.55;;;6.68;;
54037;SDS011;39954;48.844;9.726;2023-10-09T01:40:30;43.28;;;7.40;;
54037;SDS011;39954;48.844;9.726;2023-10-09T01:41:38;30.23;;;6.47;;
54037;SDS011;39954;48.844;9.726;2023-10-09T01:42:48;31.15;;;6.85;;
54037;SDS011;39954;48.844;9.726;2023-10-09T01:43:50;28.27;;;6.47;;
54037;SDS011;39954;48.844;9.726;2023-10-09T01:45:02;36.95;;;6.97;;
54037;SDS011;39954;48.844;9.726;2023-10-09T01:46:29;37.28;;;6.82;;
54037;SDS011;39954;48.844;9.726;2023-10-09T01:47:35;31.13;;;7.00;;
54037;SDS011;39954;48.844;9.726;2023-10-09T01:48:39;35.55;;;6.47;;
54037;SDS011;39954;48.844;9.726;2023-10-09T01:49:48;26.73;;;5.57;;
54037;SDS011;39954;48.844;9.726;2023-10-09T01:50:51;32.38;;;6.78;;
54037;SDS011;39954;48.844;9.726;2023-10-09T01:51:56;38.53;;;7.20;;
54037;SDS011;39954;48.844;9.726;2023-10-09T01:53:00;43.75;;;6.40;;
54037;SDS011;39954;48.844;9.726;2023-10-09T01:54:07;37.75;;;7.03;;
54037;SDS011;39954;48.844;9.726;2023-10-09T01:55:17;31.38;;;6.43;;
54037;SDS011;39954;48.844;9.726;2023-10-09T01:57:41;35.70;;;6.68;;
54037;SDS011;39954;48.844;9.726;2023-10-09T01:58:47;40.00;;;6.82;;
54037;SDS011;39954;48.844;9.726;2023-10-09T01:59:52;43.47;;;8.07;;
54037;SDS011;39954;48.844;9.726;2023-10-09T02:00:59;39.03;;;7.30;;
54037;SDS011;39954;48.844;9.726;2023-10-09T02:02:06;42.72;;;7.03;;
54037;SDS011;39954;48.844;9.726;2023-10-09T02:03:28;37.30;;;6.82;;
54037;SDS011;39954;48.844;9.726;2023-10-09T02:04:38;30.55;;;6.68;;
54037;SDS011;39954;48.844;9.726;2023-10-09T02:05:42;31.05;;;6.30;;
54037;SDS011;39954;48.844;9.726;2023-10-09T02:06:47;34.40;;;7.07;;
54037;SDS011;39954;48.844;9.726;2023-10-09T02:07:53;42.88;;;6.97;;
54037;SDS011;39954;48.844;9.726;2023-10-09T02:09:00;27.02;;;5.63;;
54037;SDS011;39954;48.844;9.726;2023-10-09T02:10:02;33.22;;;6.30;;
54037;SDS011;39954;48.844;9.726;2023-10-09T02:11:16;41.85;;;7.88;;
54037;SDS011;39954;48.844;9.726;2023-10-09T02:12:26;42.47;;;7.10;;
54037;SDS011;39954;48.844;9.726;2023-10-09T02:13:35;48.08;;;6.85;;
54037;SDS011;39954;48.844;9.726;2023-10-09T02:14:37;27.73;;;5.93;;
54037;SDS011;39954;48.844;9.726;2023-10-09T02:15:43;29.13;;;6.18;;
54037;SDS011;39954;48.844;9.726;2023-10-09T02:16:56;50.58;;;6.78;;
54037;SDS011;39954;48.844;9.726;2023-10-09T02:18:10;42.95;;;7.35;;
54037;SDS011;39954;48.844;9.726;2023-10-09T02:19:21;42.45;;;6.75;;
54037;SDS011;39954;48.844;9.726;2023-10-09T02:20:35;42.63;;;6.47;;
54037;SDS011;39954;48.844;9.726;2023-10-09T02:21:39;35.15;;;6.47;;
54037;SDS011;39954;48.844;9.726;2023-10-09T02:22:49;33.72;;;6.75;;
54037;SDS011;39954;48.844;9.726;2023-10-09T02:23:54;30.35;;;6.72;;
54037;SDS011;39954;48.844;9.726;2023-10-09T02:25:05;33.65;;;6.97;;
54037;SDS011;39954;48.844;9.726;2023-10-09T02:26:13;27.77;;;6.38;;
54037;SDS011;39954;48.844;9.726;2023-10-09T02:27:28;39.47;;;6.68;;
54037;SDS011;39954;48.844;9.726;2023-10-09T02:28:45;33.15;;;6.70;;
54037;SDS011;39954;48.844;9.726;2023-10-09T02:29:55;34.03;;;6.85;;
54037;SDS011;39954;48.844;9.726;2023-10-09T02:31:00;38.15;;;6.75;;
54037;SDS011;39954;48.844;9.726;2023-10-09T02:32:11;48.63;;;7.78;;
54037;SDS011;39954;48.844;9.726;2023-10-09T02:33:27;36.05;;;5.97;;
54037;SDS011;39954;48.844;9.726;2023-10-09T02:34:34;40.47;;;6.78;;
54037;SDS011;39954;48.844;9.726;2023-10-09T02:35:40;30.15;;;6.43;;
54037;SDS011;39954;48.844;9.726;2023-10-09T02:36:46;49.08;;;7.28;;
54037;SDS011;39954;48.844;9.726;2023-10-09T02:37:51;39.15;;;7.15;;
54037;SDS011;39954;48.844;9.726;2023-10-09T02:38:54;36.15;;;6.78;;
54037;SDS011;39954;48.844;9.726;2023-10-09T02:40:00;50.17;;;7.28;;
54037;SDS011;39954;48.844;9.726;2023-10-09T02:41:09;38.45;;;6.95;;
54037;SDS011;39954;48.844;9.726;2023-10-09T02:42:32;42.45;;;6.72;;
54037;SDS011;39954;48.844;9.726;2023-10-09T02:43:35;33.95;;;7.05;;
54037;SDS011;39954;48.844;9.726;2023-10-09T02:44:46;37.17;;;5.88;;
54037;SDS011;39954;48.844;9.726;2023-10-09T02:45:51;27.73;;;6.78;;
54037;SDS011;39954;48.844;9.726;2023-10-09T02:46:57;41.20;;;6.45;;
54037;SDS011;39954;48.844;9.726;2023-10-09T02:48:00;53.17;;;7.90;;
54037;SDS011;39954;48.844;9.726;2023-10-09T02:49:13;47.58;;;8.07;;
54037;SDS011;39954;48.844;9.726;2023-10-09T02:50:17;40.97;;;7.03;;
54037;SDS011;39954;48.844;9.726;2023-10-09T02:51:30;44.25;;;6.90;;
54037;SDS011;39954;48.844;9.726;2023-10-09T02:52:34;39.60;;;6.82;;
54037;SDS011;39954;48.844;9.726;2023-10-09T02:53:42;41.38;;;6.90;;
54037;SDS011;39954;48.844;9.726;2023-10-09T02:54:45;35.20;;;6.15;;
54037;SDS011;39954;48.844;9.726;2023-10-09T02:55:54;36.03;;;7.18;;
54037;SDS011;39954;48.844;9.726;2023-10-09T02:57:05;37.67;;;6.95;;
54037;SDS011;39954;48.844;9.726;2023-10-09T02:58:20;48.53;;;7.53;;
54037;SDS011;39954;48.844;9.726;2023-10-09T02:59:23;40.58;;;7.18;;
54037;SDS011;39954;48.844;9.726;2023-10-09T03:00:28;36.78;;;6.10;;
54037;SDS011;39954;48.844;9.726;2023-10-09T03:01:33;45.28;;;7.45;;
54037;SDS011;39954;48.844;9.726;2023-10-09T03:02:36;39.53;;;7.13;;
54037;SDS011;39954;48.844;9.726;2023-10-09T03:03:43;31.13;;;6.70;;
54037;SDS011;39954;48.844;9.726;2023-10-09T03:04:48;36.72;;;7.07;;
54037;SDS011;39954;48.844;9.726;2023-10-09T03:05:56;41.10;;;6.82;;
54037;SDS011;39954;48.844;9.726;2023-10-09T03:06:59;48.92;;;7.40;;
54037;SDS011;39954;48.844;9.726;2023-10-09T03:08:05;38.47;;;6.55;;
54037;SDS011;39954;48.844;9.726;2023-10-09T03:09:10;43.35;;;7.60;;
54037;SDS011;39954;48.844;9.726;2023-10-09T03:10:22;40.40;;;6.50;;
54037;SDS011;39954;48.844;9.726;2023-10-09T03:11:24;39.92;;;8.13;;
54037;SDS011;39954;48.844;9.726;2023-10-09T03:12:29;39.88;;;6.72;;
54037;SDS011;39954;48.844;9.726;2023-10-09T03:13:36;43.70;;;6.90;;
54037;SDS011;39954;48.844;9.726;2023-10-09T03:14:44;47.33;;;7.18;;
54037;SDS011;39954;48.844;9.726;2023-10-09T03:15:46;37.95;;;6.35;;
54037;SDS011;39954;48.844;9.726;2023-10-09T03:16:53;44.28;;;8.23;;
54037;SDS011;39954;48.844;9.726;2023-10-09T03:17:55;41.63;;;7.97;;
54037;SDS011;39954;48.844;9.726;2023-10-09T03:19:00;38.72;;;7.38;;
54037;SDS011;39954;48.844;9.726;2023-10-09T03:20:04;42.25;;;6.63;;
54037;SDS011;39954;48.844;9.726;2023-10-09T03:21:14;39.88;;;6.80;;
54037;SDS011;39954;48.844;9.726;2023-10-09T03:22:16;56.35;;;8.32;;
54037;SDS011;39954;48.844;9.726;2023-10-09T03:23:21;34.85;;;6.47;;
54037;SDS011;39954;48.844;9.726;2023-10-09T03:24:23;34.88;;;6.43;;
54037;SDS011;39954;48.844;9.726;2023-10-09T03:25:29;40.70;;;7.30;;
54037;SDS011;39954;48.844;9.726;2023-10-09T03:26:32;41.20;;;7.35;;
54037;SDS011;39954;48.844;9.726;2023-10-09T03:27:38;27.88;;;6.07;;
54037;SDS011;39954;48.844;9.726;2023-10-09T03:28:43;38.83;;;7.40;;
54037;SDS011;39954;48.844;9.726;2023-10-09T03:29:48;42.00;;;6.45;;
54037;SDS011;39954;48.844;9.726;2023-10-09T03:30:52;33.10;;;6.38;;
54037;SDS011;39954;48.844;9.726;2023-10-09T03:31:56;46.45;;;8.25;;
54037;SDS011;39954;48.844;9.726;2023-10-09T03:32:59;34.60;;;6.28;;
54037;SDS011;39954;48.844;9.726;2023-10-09T03:34:05;41.38;;;6.97;;
54037;SDS011;39954;48.844;9.726;2023-10-09T03:35:10;43.03;;;6.43;;
54037;SDS011;39954;48.844;9.726;2023-10-09T03:36:16;49.75;;;7.43;;
54037;SDS011;39954;48.844;9.726;2023-10-09T03:37:18;41.72;;;6.18;;
54037;SDS011;39954;48.844;9.726;2023-10-09T03:38:36;42.38;;;7.22;;
54037;SDS011;39954;48.844;9.726;2023-10-09T03:39:38;52.55;;;7.55;;
54037;SDS011;39954;48.844;9.726;2023-10-09T03:40:44;44.38;;;7.28;;
54037;SDS011;39954;48.844;9.726;2023-10-09T03:41:50;43.25;;;7.03;;
54037;SDS011;39954;48.844;9.726;2023-10-09T03:42:55;36.88;;;6.55;;
54037;SDS011;39954;48.844;9.726;2023-10-09T03:44:00;45.85;;;6.82;;
54037;SDS011;39954;48.844;9.726;2023-10-09T03:45:08;38.35;;;7.18;;
54037;SDS011;39954;48.844;9.726;2023-10-09T03:46:20;33.13;;;7.18;;
54037;SDS011;39954;48.844;9.726;2023-10-09T03:47:33;31.73;;;6.38;;
54037;SDS011;39954;48.844;9.726;2023-10-09T03:48:36;36.75;;;6.50;;
54037;SDS011;39954;48.844;9.726;2023-10-09T03:49:38;30.70;;;6.20;;
54037;SDS011;39954;48.844;9.726;2023-10-09T03:50:43;35.55;;;6.97;;
54037;SDS011;39954;48.844;9.726;2023-10-09T03:51:47;36.60;;;6.80;;
54037;SDS011;39954;48.844;9.726;2023-10-09T03:52:52;34.92;;;6.85;;
54037;SDS011;39954;48.844;9.726;2023-10-09T03:53:57;36.92;;;6.90;;
54037;SDS011;39954;48.844;9.726;2023-10-09T03:55:07;44.63;;;7.88;;
54037;SDS011;39954;48.844;9.726;2023-10-09T03:56:13;41.60;;;6.97;;
54037;SDS011;39954;48.844;9.726;2023-10-09T03:57:19;42.53;;;7.28;;
54037;SDS011;39954;48.844;9.726;2023-10-09T03:58:22;40.60;;;6.90;;
54037;SDS011;39954;48.844;9.726;2023-10-09T03:59:36;45.88;;;7.50;;
54037;SDS011;39954;48.844;9.726;2023-10-09T04:00:39;32.65;;;5.93;;
54037;SDS011;39954;48.844;9.726;2023-10-09T04:01:48;36.80;;;6.88;;
54037;SDS011;39954;48.844;9.726;2023-10-09T04:02:52;42.80;;;7.28;;
54037;SDS011;39954;48.844;9.726;2023-10-09T04:03:55;46.42;;;7.40;;
54037;SDS011;39954;48.844;9.726;2023-10-09T04:05:02;42.22;;;7.05;;
54037;SDS011;39954;48.844;9.726;2023-10-09T04:06:09;45.20;;;6.78;;
54037;SDS011;39954;48.844;9.726;2023-10-09T04:07:14;38.33;;;7.20;;
54037;SDS011;39954;48.844;9.726;2023-10-09T04:08:18;36.05;;;6.03;;
54037;SDS011;39954;48.844;9.726;2023-10-09T04:09:31;46.42;;;6.88;;
54037;SDS011;39954;48.844;9.726;2023-10-09T04:10:41;40.83;;;6.30;;
54037;SDS011;39954;48.844;9.726;2023-10-09T04:12:04;43.88;;;7.40;;
54037;SDS011;39954;48.844;9.726;2023-10-09T04:13:23;46.83;;;6.78;;
54037;SDS011;39954;48.844;9.726;2023-10-09T04:14:38;34.95;;;6.05;;
54037;SDS011;39954;48.844;9.726;2023-10-09T04:15:50;36.42;;;6.30;;
54037;SDS011;39954;48.844;9.726;2023-10-09T04:16:55;37.03;;;6.05;;
54037;SDS011;39954;48.844;9.726;2023-10-09T04:18:09;32.08;;;6.38;;
54037;SDS011;39954;48.844;9.726;2023-10-09T04:19:17;47.78;;;8.00;;
54037;SDS011;39954;48.844;9.726;2023-10-09T04:20:24;30.52;;;6.88;;
54037;SDS011;39954;48.844;9.726;2023-10-09T04:21:41;33.38;;;7.28;;
54037;SDS011;39954;48.844;9.726;2023-10-09T04:22:44;46.80;;;8.13;;
54037;SDS011;39954;48.844;9.726;2023-10-09T04:23:52;32.53;;;7.30;;
54037;SDS011;39954;48.844;9.726;2023-10-09T04:25:19;38.85;;;6.63;;
54037;SDS011;39954;48.844;9.726;2023-10-09T04:26:31;38.33;;;6.38;;
54037;SDS011;39954;48.844;9.726;2023-10-09T04:27:36;33.88;;;6.78;;
54037;SDS011;39954;48.844;9.726;2023-10-09T04:28:40;39.45;;;7.25;;
54037;SDS011;39954;48.844;9.726;2023-10-09T04:30:09;36.45;;;6.65;;
54037;SDS011;39954;48.844;9.726;2023-10-09T04:31:18;38.10;;;7.25;;
54037;SDS011;39954;48.844;9.726;2023-10-09T04:32:34;43.97;;;7.40;;
54037;SDS011;39954;48.844;9.726;2023-10-09T04:33:36;46.55;;;7.10;;
54037;SDS011;39954;48.844;9.726;2023-10-09T04:34:56;43.88;;;7.18;;
54037;SDS011;39954;48.844;9.726;2023-10-09T04:36:18;36.17;;;7.05;;
54037;SDS011;39954;48.844;9.726;2023-10-09T04:37:38;37.83;;;6.53;;
54037;SDS011;39954;48.844;9.726;2023-10-09T04:38:40;43.10;;;6.95;;
54037;SDS011;39954;48.844;9.726;2023-10-09T04:39:57;36.03;;;6.97;;
54037;SDS011;39954;48.844;9.726;2023-10-09T04:41:04;53.88;;;8.23;;
54037;SDS011;39954;48.844;9.726;2023-10-09T04:42:11;50.03;;;7.50;;
54037;SDS011;39954;48.844;9.726;2023-10-09T04:43:38;44.22;;;7.03;;
54037;SDS011;39954;48.844;9.726;2023-10-09T04:44:46;44.80;;;7.50;;
54037;SDS011;39954;48.844;9.726;2023-10-09T04:46:07;47.38;;;6.63;;
54037;SDS011;39954;48.844;9.726;2023-10-09T04:47:14;47.78;;;6.70;;
54037;SDS011;39954;48.844;9.726;2023-10-09T04:48:20;34.72;;;6.78;;
54037;SDS011;39954;48.844;9.726;2023-10-09T04:49:36;44.17;;;7.43;;
54037;SDS011;39954;48.844;9.726;2023-10-09T04:50:51;33.55;;;6.68;;
54037;SDS011;39954;48.844;9.726;2023-10-09T04:52:09;42.80;;;7.47;;
54037;SDS011;39954;48.844;9.726;2023-10-09T04:53:20;48.38;;;7.80;;
54037;SDS011;39954;48.844;9.726;2023-10-09T04:54:26;33.33;;;6.60;;
54037;SDS011;39954;48.844;9.726;2023-10-09T04:55:41;44.90;;;6.90;;
54037;SDS011;39954;48.844;9.726;2023-10-09T04:56:56;61.78;;;8.10;;
54037;SDS011;39954;48.844;9.726;2023-10-09T04:57:58;40.70;;;7.40;;
54037;SDS011;39954;48.844;9.726;2023-10-09T04:59:11;49.92;;;7.22;;
54037;SDS011;39954;48.844;9.726;2023-10-09T05:00:20;36.95;;;6.85;;
54037;SDS011;39954;48.844;9.726;2023-10-09T05:01:49;54.38;;;6.68;;
54037;SDS011;39954;48.844;9.726;2023-10-09T05:03:27;32.80;;;6.47;;
54037;SDS011;39954;48.844;9.726;2023-10-09T05:04:31;41.00;;;7.22;;
54037;SDS011;39954;48.844;9.726;2023-10-09T05:05:44;44.80;;;7.90;;
54037;SDS011;39954;48.844;9.726;2023-10-09T05:06:51;40.40;;;7.10;;
54037;SDS011;39954;48.844;9.726;2023-10-09T05:07:59;38.05;;;7.72;;
54037;SDS011;39954;48.844;9.726;2023-10-09T05:09:25;47.70;;;7.18;;
54037;SDS011;39954;48.844;9.726;2023-10-09T05:10:53;26.33;;;6.32;;
54037;SDS011;39954;48.844;9.726;2023-10-09T05:12:07;42.45;;;6.80;;
54037;SDS011;39954;48.844;9.726;2023-10-09T05:13:27;41.72;;;7.97;;
54037;SDS011;39954;48.844;9.726;2023-10-09T05:14:44;54.75;;;8.68;;
54037;SDS011;39954;48.844;9.726;2023-10-09T05:16:13;49.03;;;8.82;;
54037;SDS011;39954;48.844;9.726;2023-10-09T05:17:33;45.03;;;8.82;;
54037;SDS011;39954;48.844;9.726;2023-10-09T05:18:38;58.58;;;9.82;;
54037;SDS011;39954;48.844;9.726;2023-10-09T05:19:44;58.33;;;10.68;;
54037;SDS011;39954;48.844;9.726;2023-10-09T05:21:04;70.00;;;12.52;;
54037;SDS011;39954;48.844;9.726;2023-10-09T05:22:27;72.10;;;14.65;;
54037;SDS011;39954;48.844;9.726;2023-10-09T05:23:38;86.13;;;22.65;;
54037;SDS011;39954;48.844;9.726;2023-10-09T05:24:46;65.28;;;16.95;;
54037;SDS011;39954;48.844;9.726;2023-10-09T05:25:49;66.43;;;16.00;;
54037;SDS011;39954;48.844;9.726;2023-10-09T05:28:23;46.58;;;10.40;;
54037;SDS011;39954;48.844;9.726;2023-10-09T05:29:50;56.78;;;10.98;;
54037;SDS011;39954;48.844;9.726;2023-10-09T05:31:01;51.85;;;11.50;;
54037;SDS011;39954;48.844;9.726;2023-10-09T05:32:38;51.95;;;11.35;;
54037;SDS011;39954;48.844;9.726;2023-10-09T05:34:05;56.60;;;11.45;;
54037;SDS011;39954;48.844;9.726;2023-10-09T05:35:14;57.05;;;12.13;;
54037;SDS011;39954;48.844;9.726;2023-10-09T05:36:17;55.20;;;10.95;;
54037;SDS011;39954;48.844;9.726;2023-10-09T05:37:35;52.58;;;11.73;;
54037;SDS011;39954;48.844;9.726;2023-10-09T05:38:44;44.80;;;11.05;;
54037;SDS011;39954;48.844;9.726;2023-10-09T05:40:01;55.95;;;11.75;;
54037;SDS011;39954;48.844;9.726;2023-10-09T05:41:24;52.17;;;11.40;;
54037;SDS011;39954;48.844;9.726;2023-10-09T05:42:47;52.83;;;11.30;;
54037;SDS011;39954;48.844;9.726;2023-10-09T05:43:59;56.08;;;11.80;;
54037;SDS011;39954;48.844;9.726;2023-10-09T05:45:17;51.15;;;11.48;;
54037;SDS011;39954;48.844;9.726;2023-10-09T05:46:34;45.03;;;9.95;;
54037;SDS011;39954;48.844;9.726;2023-10-09T05:47:40;54.33;;;11.02;;
54037;SDS011;39954;48.844;9.726;2023-10-09T05:48:55;45.40;;;9.10;;
54037;SDS011;39954;48.844;9.726;2023-10-09T05:50:10;34.47;;;8.57;;
54037;SDS011;39954;48.844;9.726;2023-10-09T05:51:28;52.33;;;9.88;;
54037;SDS011;39954;48.844;9.726;2023-10-09T05:52:45;60.22;;;9.85;;
54037;SDS011;39954;48.844;9.726;2023-10-09T05:54:11;51.72;;;8.95;;
54037;SDS011;39954;48.844;9.726;2023-10-09T05:55:25;33.50;;;7.70;;
54037;SDS011;39954;48.844;9.726;2023-10-09T05:56:43;44.03;;;9.40;;
54037;SDS011;39954;48.844;9.726;2023-10-09T05:58:01;40.38;;;6.82;;
54037;SDS011;39954;48.844;9.726;2023-10-09T05:59:18;31.58;;;7.20;;
54037;SDS011;39954;48.844;9.726;2023-10-09T06:00:36;43.00;;;8.25;;
54037;SDS011;39954;48.844;9.726;2023-10-09T06:01:53;46.10;;;7.30;;
54037;SDS011;39954;48.844;9.726;2023-10-09T06:03:16;28.35;;;6.40;;
54037;SDS011;39954;48.844;9.726;2023-10-09T06:04:28;39.85;;;7.72;;
54037;SDS011;39954;48.844;9.726;2023-10-09T06:05:51;45.85;;;8.60;;
54037;SDS011;39954;48.844;9.726;2023-10-09T06:07:07;46.50;;;7.38;;
54037;SDS011;39954;48.844;9.726;2023-10-09T06:08:14;40.47;;;7.63;;
54037;SDS011;39954;48.844;9.726;2023-10-09T06:09:26;33.17;;;6.78;;
54037;SDS011;39954;48.844;9.726;2023-10-09T06:10:53;56.80;;;8.43;;
54037;SDS011;39954;48.844;9.726;2023-10-09T06:12:17;36.90;;;6.95;;
54037;SDS011;39954;48.844;9.726;2023-10-09T06:13:55;42.17;;;7.78;;
54037;SDS011;39954;48.844;9.726;2023-10-09T06:15:05;37.30;;;6.97;;
54037;SDS011;39954;48.844;9.726;2023-10-09T06:16:34;38.03;;;6.78;;
54037;SDS011;39954;48.844;9.726;2023-10-09T06:18:01;41.90;;;6.90;;
54037;SDS011;39954;48.844;9.726;2023-10-09T06:19:30;37.90;;;6.65;;
54037;SDS011;39954;48.844;9.726;2023-10-09T06:20:45;34.97;;;6.75;;
54037;SDS011;39954;48.844;9.726;2023-10-09T06:22:13;32.78;;;7.07;;
54037;SDS011;39954;48.844;9.726;2023-10-09T06:23:55;42.65;;;7.25;;
54037;SDS011;39954;48.844;9.726;2023-10-09T06:25:12;47.03;;;7.22;;
54037;SDS011;39954;48.844;9.726;2023-10-09T06:26:19;47.92;;;8.30;;
54037;SDS011;39954;48.844;9.726;2023-10-09T06:27:34;38.03;;;6.90;;
54037;SDS011;39954;48.844;9.726;2023-10-09T06:28:52;45.72;;;7.20;;
54037;SDS011;39954;48.844;9.726;2023-10-09T06:30:12;49.72;;;7.53;;
54037;SDS011;39954;48.844;9.726;2023-10-09T06:31:26;88.78;;;11.02;;
54037;SDS011;39954;48.844;9.726;2023-10-09T06:32:53;41.45;;;7.68;;
54037;SDS011;39954;48.844;9.726;2023-10-09T06:34:22;39.67;;;7.03;;
54037;SDS011;39954;48.844;9.726;2023-10-09T06:35:38;30.00;;;7.40;;
54037;SDS011;39954;48.844;9.726;2023-10-09T06:36:41;42.00;;;7.93;;
54037;SDS011;39954;48.844;9.726;2023-10-09T06:37:55;42.25;;;7.78;;
54037;SDS011;39954;48.844;9.726;2023-10-09T06:39:25;43.20;;;7.75;;
54037;SDS011;39954;48.844;9.726;2023-10-09T06:40:47;42.40;;;6.63;;
54037;SDS011;39954;48.844;9.726;2023-10-09T06:42:06;49.85;;;6.68;;
54037;SDS011;39954;48.844;9.726;2023-10-09T06:43:33;36.60;;;6.60;;
54037;SDS011;39954;48.844;9.726;2023-10-09T06:44:52;35.85;;;6.03;;
54037;SDS011;39954;48.844;9.726;2023-10-09T06:45:58;35.92;;;6.88;;
54037;SDS011;39954;48.844;9.726;2023-10-09T06:47:21;41.70;;;6.22;;
54037;SDS011;39954;48.844;9.726;2023-10-09T06:48:25;38.22;;;6.43;;
54037;SDS011;39954;48.844;9.726;2023-10-09T06:49:44;32.03;;;5.88;;
54037;SDS011;39954;48.844;9.726;2023-10-09T06:51:15;38.42;;;6.30;;
54037;SDS011;39954;48.844;9.726;2023-10-09T06:52:37;36.78;;;6.95;;
54037;SDS011;39954;48.844;9.726;2023-10-09T06:53:55;47.40;;;7.13;;
54037;SDS011;39954;48.844;9.726;2023-10-09T06:55:07;49.80;;;7.80;;
54037;SDS011;39954;48.844;9.726;2023-10-09T06:56:30;40.17;;;6.88;;
54037;SDS011;39954;48.844;9.726;2023-10-09T06:57:48;40.33;;;6.35;;
54037;SDS011;39954;48.844;9.726;2023-10-09T06:58:55;41.67;;;6.65;;
54037;SDS011;39954;48.844;9.726;2023-10-09T06:59:59;47.03;;;6.68;;
54037;SDS011;39954;48.844;9.726;2023-10-09T07:01:35;45.08;;;7.70;;
54037;SDS011;39954;48.844;9.726;2023-10-09T07:02:44;46.22;;;7.25;;
54037;SDS011;39954;48.844;9.726;2023-10-09T07:03:48;41.70;;;6.25;;